createdAt,value
2023-01-19T00:00:18.965Z,4.83
2023-01-19T00:01:21.588Z,4.79
2023-01-19T00:02:24.194Z,4.78
2023-01-19T00:03:27.101Z,4.80
2023-01-19T00:04:29.437Z,4.78
2023-01-19T00:05:34.042Z,4.84
2023-01-19T00:06:36.682Z,4.80
2023-01-19T00:07:39.386Z,4.85
2023-01-19T00:08:44.845Z,4.80
2023-01-19T00:09:47.376Z,4.82
2023-01-19T00:10:53.312Z,4.91
2023-01-19T00:11:56.587Z,4.92
2023-01-19T00:12:59.619Z,4.92
2023-01-19T00:14:02.511Z,4.98
2023-01-19T00:15:05.757Z,4.94
2023-01-19T00:16:08.423Z,5.00
2023-01-19T00:17:11.086Z,5.01
2023-01-19T00:18:13.888Z,4.95
2023-01-19T00:19:16.792Z,4.97
2023-01-19T00:20:19.321Z,5.00
2023-01-19T00:21:22.502Z,5.05
2023-01-19T00:22:25.033Z,5.04
2023-01-19T00:23:27.721Z,5.06
2023-01-19T00:24:30.117Z,5.03
2023-01-19T00:25:32.791Z,5.01
2023-01-19T00:26:35.225Z,5.01
2023-01-19T00:27:37.660Z,4.99
2023-01-19T00:28:40.286Z,5.02
2023-01-19T00:29:42.808Z,5.10
2023-01-19T00:30:50.707Z,5.04
2023-01-19T00:31:55.767Z,5.07
2023-01-19T00:32:58.900Z,5.07
2023-01-19T00:34:02.524Z,5.14
2023-01-19T00:35:05.591Z,5.06
2023-01-19T00:36:08.656Z,5.11
2023-01-19T00:37:11.259Z,5.09
2023-01-19T00:38:14.125Z,5.11
2023-01-19T00:39:16.743Z,5.18
2023-01-19T00:40:19.367Z,5.20
2023-01-19T00:41:44.747Z,5.18
2023-01-19T00:42:48.656Z,5.18
2023-01-19T00:43:51.252Z,5.18
2023-01-19T00:44:53.711Z,5.22
2023-01-19T00:45:56.198Z,5.23
2023-01-19T00:46:58.841Z,5.16
2023-01-19T00:48:01.820Z,5.19
2023-01-19T00:49:05.096Z,5.27
2023-01-19T00:50:12.066Z,5.22
2023-01-19T00:51:14.560Z,5.26
2023-01-19T00:52:17.099Z,5.21
2023-01-19T00:53:20.646Z,5.25
2023-01-19T00:54:23.181Z,5.27
2023-01-19T00:55:25.972Z,5.27
2023-01-19T00:56:28.288Z,5.33
2023-01-19T00:57:31.086Z,5.31
2023-01-19T00:58:33.763Z,5.29
2023-01-19T00:59:42.455Z,5.38
2023-01-19T01:00:45.201Z,5.35
2023-01-19T01:01:47.874Z,5.30
2023-01-19T01:02:52.983Z,5.26
2023-01-19T01:03:56.191Z,5.25
2023-01-19T01:05:01.188Z,5.30
2023-01-19T01:06:04.713Z,5.35
2023-01-19T01:07:07.513Z,5.33
2023-01-19T01:08:10.138Z,5.33
2023-01-19T01:09:12.645Z,5.34
2023-01-19T01:10:24.572Z,5.33
2023-01-19T01:11:34.505Z,5.36
2023-01-19T01:12:37.945Z,5.39
2023-01-19T01:13:40.645Z,5.42
2023-01-19T01:14:43.157Z,5.45
2023-01-19T01:15:51.378Z,5.37
2023-01-19T01:16:53.908Z,5.49
2023-01-19T01:18:00.386Z,5.40
2023-01-19T01:19:03.835Z,5.41
2023-01-19T01:20:08.461Z,5.42
2023-01-19T01:21:13.151Z,5.38
2023-01-19T01:22:16.428Z,5.40
2023-01-19T01:23:23.129Z,5.36
2023-01-19T01:24:32.534Z,5.42
2023-01-19T01:25:37.961Z,5.36
2023-01-19T01:26:40.403Z,5.35
2023-01-19T01:27:43.461Z,5.45
2023-01-19T01:28:46.138Z,5.41
2023-01-19T01:29:49.004Z,5.40
2023-01-19T01:30:55.969Z,5.45
2023-01-19T01:31:58.823Z,5.48
2023-01-19T01:33:04.395Z,5.39
2023-01-19T01:34:07.488Z,5.38
2023-01-19T01:35:11.508Z,5.34
2023-01-19T01:36:14.576Z,5.36
2023-01-19T01:37:17.586Z,5.35
2023-01-19T01:38:20.373Z,5.38
2023-01-19T01:39:23.154Z,5.47
2023-01-19T01:40:28.462Z,5.48
2023-01-19T01:41:33.920Z,5.45
2023-01-19T01:42:36.678Z,5.47
2023-01-19T01:44:02.208Z,5.47
2023-01-19T01:45:38.549Z,5.54
2023-01-19T01:46:41.267Z,5.47
2023-01-19T01:47:47.441Z,5.45
2023-01-19T01:49:08.809Z,5.53
2023-01-19T01:50:19.844Z,5.53
2023-01-19T01:51:44.980Z,5.54
2023-01-19T01:53:07.298Z,5.53
2023-01-19T01:54:20.080Z,5.51
2023-01-19T01:55:28.024Z,5.48
2023-01-19T01:56:45.707Z,5.52
2023-01-19T01:57:57.746Z,5.52
2023-01-19T01:59:03.362Z,5.46
2023-01-19T02:00:10.168Z,5.42
2023-01-19T02:01:32.499Z,5.43
2023-01-19T02:02:52.212Z,5.51
2023-01-19T02:03:56.205Z,5.44
2023-01-19T02:05:16.451Z,5.49
2023-01-19T02:06:21.852Z,5.53
2023-01-19T02:07:52.149Z,5.55
2023-01-19T02:09:22.411Z,5.54
2023-01-19T02:10:43.747Z,5.55
2023-01-19T02:12:06.018Z,5.49
2023-01-19T02:13:18.768Z,5.45
2023-01-19T02:14:21.760Z,5.43
2023-01-19T02:15:24.513Z,5.52
2023-01-19T02:16:27.439Z,5.49
2023-01-19T02:17:30.122Z,5.47
2023-01-19T02:18:33.704Z,5.49
2023-01-19T02:19:42.251Z,5.41
2023-01-19T02:21:13.200Z,5.45
2023-01-19T02:22:38.804Z,5.42
2023-01-19T02:23:47.542Z,5.48
2023-01-19T02:24:54.203Z,5.53
2023-01-19T02:25:56.921Z,5.47
2023-01-19T02:27:00.385Z,5.49
2023-01-19T02:28:03.746Z,5.42
2023-01-19T02:29:12.259Z,5.38
2023-01-19T02:30:16.935Z,5.42
2023-01-19T02:31:20.288Z,5.47
2023-01-19T02:32:22.915Z,5.52
2023-01-19T02:33:25.710Z,5.50
2023-01-19T02:34:28.905Z,5.42
2023-01-19T02:35:35.818Z,5.48
2023-01-19T02:36:56.183Z,5.47
2023-01-19T02:37:59.375Z,5.42
2023-01-19T02:39:03.716Z,5.42
2023-01-19T02:40:12.784Z,5.45
2023-01-19T02:41:21.672Z,5.42
2023-01-19T02:42:37.362Z,5.43
2023-01-19T02:43:42.038Z,5.42
2023-01-19T02:44:48.550Z,5.40
2023-01-19T02:45:51.646Z,5.45
2023-01-19T02:46:55.149Z,5.44
2023-01-19T02:47:57.821Z,5.45
2023-01-19T02:49:01.910Z,5.42
2023-01-19T02:50:04.839Z,5.44
2023-01-19T02:51:25.446Z,5.41
2023-01-19T02:52:28.474Z,5.39
2023-01-19T02:53:33.769Z,5.49
2023-01-19T02:54:47.093Z,5.50
2023-01-19T02:55:57.478Z,5.47
2023-01-19T02:57:39.447Z,5.48
2023-01-19T02:58:58.385Z,5.47
2023-01-19T03:00:22.254Z,5.41
2023-01-19T03:02:02.298Z,5.44
2023-01-19T03:03:30.899Z,5.47
2023-01-19T03:04:58.271Z,5.52
2023-01-19T03:06:18.522Z,5.46
2023-01-19T03:07:32.091Z,5.43
2023-01-19T03:09:04.740Z,5.52
2023-01-19T03:10:13.216Z,5.48
2023-01-19T03:11:16.640Z,5.53
2023-01-19T03:12:36.352Z,5.55
2023-01-19T03:13:50.836Z,5.54
2023-01-19T03:14:58.767Z,5.53
2023-01-19T03:16:45.107Z,5.46
2023-01-19T03:17:50.061Z,5.44
2023-01-19T03:18:56.987Z,5.48
2023-01-19T03:20:00.411Z,5.55
2023-01-19T03:21:06.660Z,5.54
2023-01-19T03:22:13.617Z,5.53
2023-01-19T03:23:37.300Z,5.50
2023-01-19T03:24:48.226Z,5.53
2023-01-19T03:25:53.337Z,5.49
2023-01-19T03:27:01.636Z,5.47
2023-01-19T03:28:05.083Z,5.48
2023-01-19T03:29:09.483Z,5.54
2023-01-19T03:30:18.800Z,5.53
2023-01-19T03:31:24.683Z,5.52
2023-01-19T03:32:36.570Z,5.52
2023-01-19T03:33:44.517Z,5.53
2023-01-19T03:34:48.522Z,5.60
2023-01-19T03:35:57.819Z,5.53
2023-01-19T03:37:04.175Z,5.47
2023-01-19T03:38:15.329Z,5.51
2023-01-19T03:39:23.840Z,5.54
2023-01-19T03:40:32.322Z,5.58
2023-01-19T03:41:37.901Z,5.57
2023-01-19T03:42:41.504Z,5.57
2023-01-19T03:43:45.258Z,5.61
2023-01-19T03:44:50.854Z,5.60
2023-01-19T03:45:55.294Z,5.67
2023-01-19T03:46:59.287Z,5.63
2023-01-19T03:48:02.315Z,5.66
2023-01-19T03:49:05.208Z,5.59
2023-01-19T03:50:15.380Z,5.62
2023-01-19T03:51:19.652Z,5.59
2023-01-19T03:52:30.439Z,5.59
2023-01-19T03:53:32.879Z,5.61
2023-01-19T03:54:35.552Z,5.62
2023-01-19T03:55:40.781Z,5.58
2023-01-19T03:56:44.831Z,5.57
2023-01-19T03:57:49.547Z,5.63
2023-01-19T03:58:52.497Z,5.60
2023-01-19T03:59:56.093Z,5.63
2023-01-19T04:00:58.703Z,5.59
2023-01-19T04:02:01.453Z,5.62
2023-01-19T04:03:05.526Z,5.61
2023-01-19T04:04:08.592Z,5.72
2023-01-19T04:05:11.299Z,5.75
2023-01-19T04:06:14.224Z,5.75
2023-01-19T04:07:17.074Z,5.75
2023-01-19T04:08:19.767Z,5.76
2023-01-19T04:09:22.932Z,5.80
2023-01-19T04:10:25.594Z,5.74
2023-01-19T04:11:28.716Z,5.65
2023-01-19T04:12:31.292Z,5.76
2023-01-19T04:13:34.196Z,5.69
2023-01-19T04:14:39.292Z,5.73
2023-01-19T04:15:42.150Z,5.69
2023-01-19T04:16:48.444Z,5.67
2023-01-19T04:17:51.040Z,5.69
2023-01-19T04:18:53.736Z,5.66
2023-01-19T04:19:56.206Z,5.72
2023-01-19T04:21:02.378Z,5.68
2023-01-19T04:22:09.114Z,5.74
2023-01-19T04:23:11.886Z,5.68
2023-01-19T04:24:14.300Z,5.69
2023-01-19T04:25:16.937Z,5.72
2023-01-19T04:26:19.952Z,5.74
2023-01-19T04:27:22.642Z,5.73
2023-01-19T04:28:26.255Z,5.87
2023-01-19T04:29:28.754Z,5.84
2023-01-19T04:30:31.875Z,5.77
2023-01-19T04:31:35.909Z,5.78
2023-01-19T04:32:38.550Z,5.83
2023-01-19T04:33:41.220Z,5.82
2023-01-19T04:34:44.163Z,5.85
2023-01-19T04:35:47.831Z,5.89
2023-01-19T04:36:51.772Z,5.84
2023-01-19T04:37:54.844Z,5.80
2023-01-19T04:38:57.448Z,5.80
2023-01-19T04:40:00.038Z,5.85
2023-01-19T04:41:02.677Z,5.85
2023-01-19T04:42:06.582Z,5.81
2023-01-19T04:43:10.037Z,5.80
2023-01-19T04:44:14.936Z,5.75
2023-01-19T04:45:17.667Z,5.76
2023-01-19T04:46:20.290Z,5.78
2023-01-19T04:47:23.001Z,5.79
2023-01-19T04:48:25.748Z,5.83
2023-01-19T04:49:28.429Z,5.77
2023-01-19T04:50:32.528Z,5.76
2023-01-19T04:51:35.809Z,5.82
2023-01-19T04:52:38.998Z,5.80
2023-01-19T04:53:41.546Z,5.78
2023-01-19T04:54:44.204Z,5.77
2023-01-19T04:55:46.990Z,5.79
2023-01-19T04:56:50.053Z,5.75
2023-01-19T04:57:52.506Z,5.77
2023-01-19T04:58:55.047Z,5.76
2023-01-19T04:59:58.491Z,5.80
2023-01-19T05:01:01.034Z,5.83
2023-01-19T05:02:03.906Z,5.77
2023-01-19T05:03:06.596Z,5.77
2023-01-19T05:04:09.363Z,5.81
2023-01-19T05:05:12.337Z,5.78
2023-01-19T05:06:15.061Z,5.76
2023-01-19T05:07:17.892Z,5.74
2023-01-19T05:08:20.649Z,5.74
2023-01-19T05:09:23.055Z,5.71
2023-01-19T05:10:25.692Z,5.76
2023-01-19T05:11:28.151Z,5.74
2023-01-19T05:12:30.782Z,5.75
2023-01-19T05:13:33.789Z,5.80
2023-01-19T05:14:41.823Z,5.77
2023-01-19T05:15:45.409Z,5.80
2023-01-19T05:16:47.922Z,5.88
2023-01-19T05:17:50.606Z,5.79
2023-01-19T05:18:53.221Z,5.84
2023-01-19T05:19:55.803Z,5.86
2023-01-19T05:20:58.583Z,5.83
2023-01-19T05:22:05.644Z,5.82
2023-01-19T05:23:09.482Z,5.94
2023-01-19T05:24:12.240Z,5.90
2023-01-19T05:25:14.959Z,5.82
2023-01-19T05:26:19.913Z,5.80
2023-01-19T05:27:22.676Z,5.83
2023-01-19T05:28:25.120Z,5.82
2023-01-19T05:29:30.313Z,5.80
2023-01-19T05:30:32.789Z,5.76
2023-01-19T05:31:36.267Z,5.78
2023-01-19T05:32:38.963Z,5.81
2023-01-19T05:33:41.508Z,5.77
2023-01-19T05:34:44.148Z,5.77
2023-01-19T05:35:53.125Z,5.74
2023-01-19T05:36:58.295Z,5.80
2023-01-19T05:38:01.111Z,5.83
2023-01-19T05:39:04.204Z,5.80
2023-01-19T05:40:07.422Z,5.82
2023-01-19T05:41:10.053Z,5.85
2023-01-19T05:42:12.627Z,5.89
2023-01-19T05:43:15.765Z,5.86
2023-01-19T05:44:18.462Z,5.89
2023-01-19T05:45:23.871Z,5.83
2023-01-19T05:46:29.430Z,5.82
2023-01-19T05:47:32.895Z,5.89
2023-01-19T05:48:35.320Z,5.90
2023-01-19T05:49:37.948Z,5.86
2023-01-19T05:50:40.445Z,5.81
2023-01-19T05:51:45.566Z,5.85
2023-01-19T05:52:53.467Z,5.80
2023-01-19T05:53:56.371Z,5.82
2023-01-19T05:54:58.794Z,5.83
2023-01-19T05:56:06.498Z,5.86
2023-01-19T05:57:09.120Z,5.87
2023-01-19T05:58:11.582Z,5.84
2023-01-19T05:59:17.841Z,5.85
2023-01-19T06:00:20.695Z,5.87
2023-01-19T06:01:30.517Z,6.00
2023-01-19T06:02:46.758Z,5.90
2023-01-19T06:03:49.267Z,5.93
2023-01-19T06:04:52.072Z,5.95
2023-01-19T06:05:58.044Z,5.99
2023-01-19T06:07:00.855Z,5.97
2023-01-19T06:08:03.301Z,6.03
2023-01-19T06:09:05.757Z,5.98
2023-01-19T06:10:09.323Z,5.96
2023-01-19T06:11:12.727Z,5.94
2023-01-19T06:12:15.234Z,5.94
2023-01-19T06:13:18.622Z,5.90
2023-01-19T06:14:21.213Z,5.94
2023-01-19T06:15:23.810Z,5.94
2023-01-19T06:16:26.475Z,5.92
2023-01-19T06:17:29.163Z,5.96
2023-01-19T06:18:32.120Z,5.91
2023-01-19T06:19:35.228Z,5.90
2023-01-19T06:20:40.359Z,5.90
2023-01-19T06:21:43.531Z,5.92
2023-01-19T06:22:46.244Z,5.91
2023-01-19T06:23:48.731Z,5.96
2023-01-19T06:24:51.329Z,6.00
2023-01-19T06:25:53.928Z,6.04
2023-01-19T06:26:56.549Z,6.00
2023-01-19T06:27:59.237Z,5.99
2023-01-19T06:29:04.104Z,6.00
2023-01-19T06:30:07.342Z,6.03
2023-01-19T06:31:10.250Z,6.01
2023-01-19T06:32:13.719Z,6.08
2023-01-19T06:33:17.301Z,6.07
2023-01-19T06:34:20.281Z,6.03
2023-01-19T06:35:22.796Z,6.01
2023-01-19T06:36:25.314Z,6.03
2023-01-19T06:37:30.724Z,6.04
2023-01-19T06:38:33.378Z,6.02
2023-01-19T06:39:38.006Z,6.07
2023-01-19T06:40:41.683Z,6.09
2023-01-19T06:41:44.242Z,6.10
2023-01-19T06:42:46.822Z,6.17
2023-01-19T06:43:58.204Z,6.05
2023-01-19T06:45:10.389Z,6.03
2023-01-19T06:47:15.011Z,6.07
2023-01-19T06:49:07.350Z,6.03
2023-01-19T06:50:33.172Z,6.14
2023-01-19T06:52:06.065Z,6.20
2023-01-19T06:53:44.389Z,6.10
2023-01-19T06:56:28.364Z,6.16
2023-01-19T06:57:53.330Z,6.08
2023-01-19T06:59:22.932Z,6.16
2023-01-19T07:01:13.276Z,6.09
2023-01-19T07:11:34.899Z,6.18
2023-01-19T07:18:24.886Z,6.24
2023-01-19T07:24:36.717Z,6.28
2023-01-19T07:28:38.707Z,6.24
2023-01-19T07:32:15.055Z,6.26
2023-01-19T07:44:33.179Z,6.26
2023-01-19T07:46:01.704Z,6.30
2023-01-19T07:47:34.421Z,6.24
2023-01-19T07:49:03.803Z,6.26
2023-01-19T07:50:47.440Z,6.27
2023-01-19T08:00:07.089Z,6.35
2023-01-19T08:03:37.699Z,6.39
2023-01-19T08:16:15.037Z,6.42
2023-01-19T08:19:22.091Z,6.52
2023-01-19T08:21:20.631Z,6.51
2023-01-19T08:29:07.290Z,6.52
2023-01-19T08:33:24.343Z,6.56
2023-01-19T08:42:38.260Z,6.65
2023-01-19T08:44:05.955Z,6.64
2023-01-19T08:46:38.192Z,6.61
2023-01-19T08:48:39.923Z,6.66
2023-01-19T08:50:46.361Z,6.69
2023-01-19T08:53:13.325Z,6.68
2023-01-19T08:54:24.736Z,6.67
2023-01-19T08:59:43.361Z,6.59
2023-01-19T09:01:00.420Z,6.62
2023-01-19T09:02:29.804Z,6.57
2023-01-19T09:03:49.945Z,6.60
2023-01-19T09:05:07.229Z,6.61
2023-01-19T09:06:11.389Z,6.62
2023-01-19T09:07:14.345Z,6.66
2023-01-19T09:08:22.632Z,6.65
2023-01-19T09:09:29.314Z,6.65
2023-01-19T09:10:49.281Z,6.64
2023-01-19T09:11:55.930Z,6.71
2023-01-19T09:13:08.879Z,6.58
2023-01-19T09:14:39.574Z,6.59
2023-01-19T09:15:44.913Z,6.63
2023-01-19T09:17:09.522Z,6.54
2023-01-19T09:18:24.388Z,6.52
2023-01-19T09:20:04.243Z,6.52
2023-01-19T09:21:18.503Z,6.54
2023-01-19T09:22:48.372Z,6.53
2023-01-19T09:24:06.566Z,6.58
2023-01-19T09:27:40.610Z,6.50
2023-01-19T09:31:02.877Z,6.47
2023-01-19T09:32:35.145Z,6.43
2023-01-19T09:34:18.350Z,6.48
2023-01-19T09:35:45.298Z,6.47
2023-01-19T09:37:05.472Z,6.45
2023-01-19T09:38:42.816Z,6.42
2023-01-19T09:39:54.117Z,6.57
2023-01-19T09:41:14.364Z,6.47
2023-01-19T09:42:50.347Z,6.46
2023-01-19T09:44:17.853Z,6.50
2023-01-19T09:45:49.252Z,6.53
2023-01-19T09:46:54.723Z,6.41
2023-01-19T09:48:27.135Z,6.54
2023-01-19T09:49:39.955Z,6.46
2023-01-19T09:50:48.782Z,6.45
2023-01-19T09:52:12.763Z,6.32
2023-01-19T09:53:29.897Z,6.35
2023-01-19T09:55:01.140Z,6.31
2023-01-19T09:56:04.037Z,6.23
2023-01-19T09:57:25.119Z,6.30
2023-01-19T09:58:32.303Z,6.30
2023-01-19T09:59:37.394Z,6.34
2023-01-19T10:00:50.382Z,6.21
2023-01-19T10:02:30.889Z,6.19
2023-01-19T10:03:41.778Z,6.22
2023-01-19T10:04:58.464Z,6.18
2023-01-19T10:06:17.745Z,6.16
2023-01-19T10:07:54.825Z,6.15
2023-01-19T10:09:33.249Z,6.09
2023-01-19T10:11:03.074Z,6.06
2023-01-19T10:12:22.624Z,6.07
2023-01-19T10:13:50.274Z,6.07
2023-01-19T10:15:25.459Z,6.09
2023-01-19T10:16:50.007Z,6.11
2023-01-19T10:18:17.504Z,6.07
2023-01-19T10:19:44.613Z,6.14
2023-01-19T10:21:23.072Z,6.17
2023-01-19T10:22:29.234Z,6.18
2023-01-19T10:23:48.446Z,6.12
2023-01-19T10:25:02.470Z,6.11
2023-01-19T10:26:40.261Z,6.05
2023-01-19T10:27:46.652Z,6.04
2023-01-19T10:29:01.155Z,5.99
2023-01-19T10:30:20.595Z,6.05
2023-01-19T10:31:28.350Z,6.04
2023-01-19T10:32:36.846Z,6.02
2023-01-19T10:33:42.334Z,6.05
2023-01-19T10:34:55.279Z,6.03
2023-01-19T10:36:04.970Z,6.10
2023-01-19T10:37:20.624Z,6.04
2023-01-19T10:38:34.100Z,5.91
2023-01-19T10:39:47.646Z,5.96
2023-01-19T10:41:04.850Z,5.98
2023-01-19T10:42:24.923Z,5.87
2023-01-19T10:43:37.747Z,5.90
2023-01-19T10:44:52.677Z,5.96
2023-01-19T10:45:57.998Z,5.88
2023-01-19T10:47:07.137Z,5.83
2023-01-19T10:48:19.864Z,5.79
2023-01-19T10:49:43.528Z,5.85
2023-01-19T10:50:46.663Z,5.89
2023-01-19T10:51:52.872Z,5.93
2023-01-19T10:53:12.601Z,5.99
2023-01-19T10:54:17.448Z,6.00
2023-01-19T10:55:26.559Z,5.88
2023-01-19T10:56:38.892Z,5.90
2023-01-19T10:57:46.408Z,5.97
2023-01-19T10:59:00.718Z,5.92
2023-01-19T11:00:31.872Z,5.85
2023-01-19T11:01:39.626Z,5.88
2023-01-19T11:04:59.278Z,5.98
2023-01-19T11:06:17.796Z,5.97
2023-01-19T11:07:22.096Z,5.95
2023-01-19T11:08:33.445Z,5.96
2023-01-19T11:09:38.789Z,5.97
2023-01-19T11:10:42.149Z,5.88
2023-01-19T11:11:57.689Z,5.93
2023-01-19T11:13:23.351Z,5.87
2023-01-19T11:14:42.547Z,5.91
2023-01-19T11:15:51.609Z,5.90
2023-01-19T11:17:28.974Z,5.92
2023-01-19T11:19:39.777Z,5.85
2023-01-19T11:21:03.563Z,5.81
2023-01-19T11:22:30.916Z,5.80
2023-01-19T11:24:15.360Z,5.83
2023-01-19T11:25:48.248Z,5.92
2023-01-19T11:27:18.688Z,5.91
2023-01-19T11:28:39.302Z,5.93
2023-01-19T11:30:21.077Z,6.00
2023-01-19T11:31:36.689Z,6.12
2023-01-19T11:32:39.371Z,6.03
2023-01-19T11:33:49.791Z,6.12
2023-01-19T11:34:53.643Z,6.06
2023-01-19T11:36:05.208Z,6.02
2023-01-19T11:37:16.941Z,6.09
2023-01-19T11:38:23.705Z,6.09
2023-01-19T11:39:30.109Z,6.04
2023-01-19T11:40:36.627Z,6.03
2023-01-19T11:41:50.779Z,6.07
2023-01-19T11:42:53.534Z,6.14
2023-01-19T11:44:00.433Z,6.15
2023-01-19T11:45:15.557Z,6.15
2023-01-19T11:46:19.352Z,6.12
2023-01-19T11:47:43.716Z,6.15
2023-01-19T11:49:02.946Z,6.05
2023-01-19T11:50:29.852Z,5.98
2023-01-19T11:51:42.737Z,5.91
2023-01-19T11:52:54.787Z,5.91
2023-01-19T11:54:06.160Z,6.05
2023-01-19T11:55:22.825Z,6.11
2023-01-19T11:56:29.238Z,6.06
2023-01-19T11:57:34.635Z,6.07
2023-01-19T11:58:50.267Z,6.01
2023-01-19T11:59:55.650Z,5.94
2023-01-19T12:01:07.424Z,5.86
2023-01-19T12:02:42.986Z,5.93
2023-01-19T12:03:59.986Z,5.93
2023-01-19T12:05:07.743Z,5.94
2023-01-19T12:06:34.784Z,5.93
2023-01-19T12:07:38.881Z,5.94
2023-01-19T12:08:44.584Z,5.93
2023-01-19T12:09:51.866Z,5.91
2023-01-19T12:10:57.737Z,5.96
2023-01-19T12:12:06.793Z,6.04
2023-01-19T12:13:28.147Z,5.95
2023-01-19T12:14:51.725Z,6.01
2023-01-19T12:16:05.367Z,6.04
2023-01-19T12:17:21.863Z,5.93
2023-01-19T12:18:36.627Z,5.92
2023-01-19T12:20:15.370Z,5.92
2023-01-19T12:21:21.447Z,5.92
2023-01-19T12:22:24.571Z,5.89
2023-01-19T12:23:41.805Z,5.85
2023-01-19T12:25:01.975Z,5.78
2023-01-19T12:26:16.679Z,5.82
2023-01-19T12:27:32.415Z,5.81
2023-01-19T12:28:40.750Z,5.80
2023-01-19T12:29:44.529Z,5.85
2023-01-19T12:30:47.691Z,5.92
2023-01-19T12:32:14.734Z,5.81
2023-01-19T12:33:35.391Z,5.82
2023-01-19T12:34:48.906Z,5.75
2023-01-19T12:36:04.392Z,5.82
2023-01-19T12:37:36.411Z,5.75
2023-01-19T12:38:50.519Z,5.75
2023-01-19T12:40:05.769Z,5.78
2023-01-19T12:41:32.881Z,5.75
2023-01-19T12:42:35.700Z,5.69
2023-01-19T12:43:38.351Z,5.65
2023-01-19T12:44:42.559Z,5.77
2023-01-19T12:45:48.357Z,5.75
2023-01-19T12:46:58.771Z,5.78
2023-01-19T12:48:02.883Z,5.68
2023-01-19T12:49:39.235Z,5.74
2023-01-19T12:50:47.509Z,5.76
2023-01-19T12:51:52.756Z,5.70
2023-01-19T12:53:03.164Z,5.77
2023-01-19T12:54:08.538Z,5.77
2023-01-19T12:55:13.467Z,5.79
2023-01-19T12:56:18.236Z,5.77
2023-01-19T12:57:27.326Z,5.77
2023-01-19T12:58:30.059Z,5.74
2023-01-19T12:59:36.196Z,5.76
2023-01-19T13:00:43.423Z,5.65
2023-01-19T13:02:27.012Z,5.77
2023-01-19T13:03:32.304Z,5.69
2023-01-19T13:04:38.014Z,5.57
2023-01-19T13:05:41.451Z,5.58
2023-01-19T13:06:50.102Z,5.68
2023-01-19T13:08:07.516Z,5.67
2023-01-19T13:09:31.079Z,5.63
2023-01-19T13:10:53.677Z,5.69
2023-01-19T13:12:36.139Z,5.76
2023-01-19T13:13:49.675Z,5.86
2023-01-19T13:15:32.456Z,5.89
2023-01-19T13:16:38.154Z,5.87
2023-01-19T13:17:53.981Z,5.75
2023-01-19T13:19:19.016Z,5.69
2023-01-19T13:20:31.770Z,5.75
2023-01-19T13:21:43.617Z,5.77
2023-01-19T13:22:49.933Z,5.82
2023-01-19T13:23:58.988Z,5.81
2023-01-19T13:25:14.183Z,5.82
2023-01-19T13:26:23.591Z,5.80
2023-01-19T13:27:30.750Z,5.72
2023-01-19T13:28:41.961Z,5.67
2023-01-19T13:29:45.712Z,5.69
2023-01-19T13:30:58.372Z,5.61
2023-01-19T13:32:24.063Z,5.63
2023-01-19T13:33:43.352Z,5.63
2023-01-19T13:34:53.586Z,5.67
2023-01-19T13:35:59.151Z,5.72
2023-01-19T13:37:09.791Z,5.65
2023-01-19T13:38:25.062Z,5.67
2023-01-19T13:39:37.296Z,5.76
2023-01-19T13:40:43.289Z,5.74
2023-01-19T13:41:47.071Z,5.82
2023-01-19T13:42:52.007Z,5.70
2023-01-19T14:00:59.861Z,5.80
2023-01-19T14:02:18.426Z,5.77
2023-01-19T14:03:33.308Z,5.74
2023-01-19T14:19:04.844Z,5.84
2023-01-19T14:20:50.383Z,5.90
2023-01-19T15:15:40.011Z,5.59
2023-01-19T15:40:21.842Z,5.75
2023-01-19T15:44:31.431Z,6.00
2023-01-19T15:46:16.509Z,6.11
2023-01-19T15:48:52.559Z,6.31
2023-01-19T15:56:09.947Z,6.47
2023-01-19T15:56:56.895Z,6.46
2023-01-19T15:58:13.941Z,6.43
2023-01-19T15:59:28.951Z,6.45
2023-01-19T16:00:43.261Z,6.36
2023-01-19T16:02:16.224Z,6.37
2023-01-19T16:03:24.744Z,6.31
2023-01-19T16:06:05.808Z,6.27
2023-01-19T16:07:09.630Z,6.18
2023-01-19T16:08:15.758Z,6.15
2023-01-19T16:09:42.048Z,6.13
2023-01-19T16:11:33.284Z,6.15
2023-01-19T16:12:36.569Z,6.08
2023-01-19T16:15:35.052Z,5.99
2023-01-19T16:16:53.234Z,5.91
2023-01-19T16:18:08.654Z,5.83
2023-01-19T16:19:23.966Z,5.87
2023-01-19T16:22:17.134Z,5.67
2023-01-19T18:11:09.770Z,4.90
2023-01-19T18:42:35.055Z,4.36
2023-01-19T18:43:40.694Z,4.30
2023-01-19T18:44:44.879Z,4.28
2023-01-19T18:45:49.760Z,4.36
2023-01-19T18:46:55.951Z,4.33
2023-01-19T18:48:04.817Z,4.32
2023-01-19T18:49:10.516Z,4.30
2023-01-19T18:50:24.514Z,4.25
2023-01-19T18:51:38.686Z,4.23
2023-01-19T18:52:44.228Z,4.18
2023-01-19T18:53:48.839Z,4.13
2023-01-19T18:54:54.137Z,4.14
2023-01-19T18:56:05.032Z,4.18
2023-01-19T18:57:13.078Z,4.18
2023-01-19T18:58:20.354Z,4.17
2023-01-19T18:59:24.829Z,4.11
2023-01-19T19:00:30.094Z,4.13
2023-01-19T19:01:38.036Z,4.09
2023-01-19T19:02:42.628Z,4.09
2023-01-19T19:03:47.445Z,4.12
2023-01-19T19:04:55.836Z,4.11
2023-01-19T19:06:04.228Z,4.17
2023-01-19T19:07:09.324Z,4.10
2023-01-19T19:08:13.380Z,4.08
2023-01-19T19:09:18.896Z,4.17
2023-01-19T19:10:24.220Z,4.13
2023-01-19T19:11:29.256Z,4.12
2023-01-19T19:14:05.295Z,4.06
2023-01-19T19:15:11.724Z,4.08
2023-01-19T19:16:16.293Z,4.05
2023-01-19T19:17:21.578Z,4.09
2023-01-19T19:18:28.180Z,4.07
2023-01-19T19:19:34.572Z,4.07
2023-01-19T19:20:46.131Z,4.04
2023-01-19T19:21:53.335Z,4.06
2023-01-19T19:23:02.275Z,4.05
2023-01-19T19:24:25.353Z,4.11
2023-01-19T19:25:41.220Z,4.06
2023-01-19T19:27:21.827Z,4.05
2023-01-19T19:31:18.252Z,4.04
2023-01-19T19:34:16.045Z,4.01
2023-01-19T19:38:11.163Z,4.07
2023-01-19T19:39:15.672Z,4.01
2023-01-19T19:41:23.479Z,4.09
2023-01-19T19:44:39.050Z,4.04
2023-01-19T19:51:04.004Z,4.01
2023-01-19T20:00:38.125Z,4.02
2023-01-19T20:02:17.546Z,4.01
2023-01-19T20:03:39.763Z,4.02
2023-01-19T20:05:05.152Z,4.06
2023-01-19T20:06:30.252Z,3.91
2023-01-19T20:07:36.175Z,3.93
2023-01-19T20:08:44.743Z,3.92
2023-01-19T20:09:52.050Z,3.91
2023-01-19T20:11:03.306Z,3.91
2023-01-19T20:12:11.731Z,3.92
2023-01-19T20:13:23.947Z,3.94
2023-01-19T20:14:37.844Z,3.91
2023-01-19T20:15:46.715Z,3.92
2023-01-19T20:16:56.423Z,3.93
2023-01-19T20:18:02.146Z,3.98
2023-01-19T20:19:10.228Z,3.96
2023-01-19T20:20:15.221Z,3.95
2023-01-19T20:21:23.148Z,3.93
2023-01-19T20:22:28.296Z,3.92
2023-01-19T20:23:46.126Z,3.92
2023-01-19T20:24:56.017Z,3.92
2023-01-19T20:26:12.190Z,3.90
2023-01-19T20:27:20.319Z,3.93
2023-01-19T20:28:29.018Z,3.95
2023-01-19T20:29:38.639Z,3.94
2023-01-19T20:30:59.595Z,3.97
2023-01-19T20:32:04.537Z,3.94
2023-01-19T20:33:14.278Z,3.91
2023-01-19T20:34:39.940Z,3.91
2023-01-19T20:35:54.882Z,3.89
2023-01-19T20:37:00.341Z,4.01
2023-01-19T20:38:05.076Z,3.96
2023-01-19T20:39:13.523Z,3.97
2023-01-19T20:40:21.057Z,4.07
2023-01-19T20:41:27.275Z,4.05
2023-01-19T20:42:32.036Z,4.00
2023-01-19T20:43:37.260Z,4.02
2023-01-19T20:44:43.167Z,3.92
2023-01-19T20:45:55.312Z,3.91
2023-01-19T20:47:06.553Z,3.92
2023-01-19T20:48:10.968Z,3.94
2023-01-19T20:49:21.855Z,3.95
2023-01-19T20:50:33.431Z,3.93
2023-01-19T20:51:43.717Z,3.93
2023-01-19T20:52:53.726Z,3.85
2023-01-19T20:54:00.900Z,3.88
2023-01-19T20:55:08.115Z,3.88
2023-01-19T20:56:15.561Z,3.93
2023-01-19T20:57:20.535Z,3.92
2023-01-19T20:58:25.580Z,3.83
2023-01-19T20:59:43.384Z,3.89
2023-01-19T21:00:55.836Z,4.02
2023-01-19T21:03:30.348Z,3.84
2023-01-19T21:04:46.622Z,3.88
2023-01-19T21:05:51.711Z,3.93
2023-01-19T21:07:00.191Z,3.93
2023-01-19T21:08:13.604Z,3.87
2023-01-19T21:09:16.582Z,3.83
2023-01-19T21:10:20.024Z,3.88
2023-01-19T21:11:29.585Z,3.86
2023-01-19T21:12:32.709Z,3.89
2023-01-19T21:13:37.096Z,3.92
2023-01-19T21:14:41.023Z,3.83
2023-01-19T21:15:45.042Z,3.89
2023-01-19T21:16:47.790Z,3.98
2023-01-19T21:17:51.464Z,3.90
2023-01-19T21:18:55.787Z,3.91
2023-01-19T21:19:58.520Z,3.93
2023-01-19T21:21:01.990Z,3.87
2023-01-19T21:22:04.873Z,3.94
2023-01-19T21:23:08.128Z,3.93
2023-01-19T21:24:11.754Z,3.87
2023-01-19T21:25:15.045Z,3.88
2023-01-19T21:26:18.143Z,4.01
2023-01-19T21:27:21.113Z,3.95
2023-01-19T21:28:26.432Z,3.99
2023-01-19T21:29:29.616Z,3.91
2023-01-19T21:30:36.490Z,3.91
2023-01-19T21:31:40.982Z,3.90
2023-01-19T21:32:44.520Z,3.93
2023-01-19T21:33:49.362Z,3.99
2023-01-19T21:34:52.522Z,3.98
2023-01-19T21:35:57.671Z,4.04
2023-01-19T21:37:00.693Z,4.04
2023-01-19T21:38:03.464Z,4.04
2023-01-19T21:39:08.268Z,4.03
2023-01-19T21:40:11.512Z,4.01
2023-01-19T21:41:16.501Z,4.00
2023-01-19T21:42:19.066Z,4.00
2023-01-19T21:43:22.173Z,3.99
2023-01-19T21:44:24.841Z,4.14
2023-01-19T21:45:27.539Z,4.11
2023-01-19T21:46:31.349Z,4.05
2023-01-19T21:47:36.992Z,4.06
2023-01-19T21:48:39.898Z,4.02
2023-01-19T21:49:42.484Z,4.01
2023-01-19T21:50:45.607Z,4.02
2023-01-19T21:51:49.293Z,3.99
2023-01-19T21:52:51.865Z,4.08
2023-01-19T21:53:59.815Z,4.08
2023-01-19T21:55:02.327Z,4.05
2023-01-19T21:56:10.522Z,4.08
2023-01-19T21:57:15.311Z,4.00